Skip to main content

NOAA/GLERL Met Station at Michigan City, IN

Previous 3 Hours (2 minute increments)
See also Previous 5 Days (top of hour)
Jump down to Data
Switch to [English][Metric]
Zoom: Click and drag, Pan: shift-click and drag, Unzoom: double-click, Unzoom All






See also 1-day windrose plot


NOAA/GLERL Met Station at Michigan City, IN

Previous 3 Hours (2 minute increments)
See also Previous 5 Days (top of hour only)
Jump up to Graphs
Switch to [English][Metric]
                  Wind  Wind  Wind   Air   Dew   Rel     Sta   PAR
                   Spd   Gst   Dir  Temp    Pt   Hum    Pres uE/m2/
YYYY-MM-DD   CDT   kts   kts   deg     F     F     %   in Hg   sec
2026-09-06 15:52  15.0  16.3    10  73.9  67.4  79.7   29.38   982
2026-09-06 15:50  14.6  15.9     7  73.9  68.1  81.6   29.38   982
2026-09-06 15:48  15.2  16.7     9  73.9  67.0  78.7   29.38   982
2026-09-06 15:46  15.4  16.5     7  73.8  67.2  79.7   29.38   982
2026-09-06 15:44  15.4  16.3     8  73.9  67.1  78.8   29.38   982
2026-09-06 15:42  14.8  16.3     8  73.9  67.1  78.8   29.38   982
2026-09-06 15:40  14.4  15.2    10  73.9  67.4  79.6   29.38   982
2026-09-06 15:38  14.0  15.2    10  74.1  67.4  79.2   29.38   982
2026-09-06 15:36  14.4  15.4     9  74.1  67.2  78.7   29.38   989
2026-09-06 15:34  14.6  15.4     8  73.9  67.2  79.2   29.39   982
2026-09-06 15:32  13.4  14.6    10  73.8  66.7  78.3   29.39  1003
2026-09-06 15:30  13.0  14.4    10  73.8  66.9  78.9   29.39   894
2026-09-06 15:28  13.4  14.2     9  73.8  66.9  78.7   29.39   819
2026-09-06 15:26  13.8  15.0     8  73.6  67.3  80.5   29.38   853
2026-09-06 15:24  13.8  15.2     9  73.8  67.3  79.9   29.38   703
2026-09-06 15:22  14.2  15.6     7  73.8  67.0  79.0   29.38  1064
2026-09-06 15:20  14.0  15.4     7  73.8  67.2  79.6   29.38  1139
2026-09-06 15:18  14.4  15.6     6  73.6  67.3  80.4   29.38  1078
2026-09-06 15:16  14.8  16.1     5  73.8  67.2  79.7   29.38  1112
2026-09-06 15:14  14.2  15.4     7  73.6  67.4  80.8   29.38  1146
2026-09-06 15:12  15.0  16.3     5  73.6  67.7  81.5   29.38  1139
2026-09-06 15:10  14.6  16.1     8  73.8  67.3  79.8   29.38  1078
2026-09-06 15:08  12.8  13.6     7  73.8  67.8  81.3   29.39  1003
2026-09-06 15:06  13.2  15.2     7  73.8  67.6  80.7   29.38  1119
2026-09-06 15:04  13.6  14.8     5  73.8  67.4  80.2   29.38  1139
2026-09-06 15:02  13.8  15.0     9  73.8  67.2  79.6   29.38  1146
2026-09-06 15:00  14.0  15.2    10  73.8  67.0  79.1   29.38  1146
2026-09-06 14:58  14.0  15.2     9  73.8  67.4  80.2   29.38  1146
2026-09-06 14:56  14.2  14.6     7  73.6  67.2  80.1   29.38  1146
2026-09-06 14:54  14.0  15.4     7  73.6  67.8  81.7   29.38  1146
2026-09-06 14:52  14.6  16.1     9  73.6  67.8  81.7   29.38  1146
2026-09-06 14:50  15.2  16.7    11  73.6  67.6  81.2   29.38  1146
2026-09-06 14:48  15.4  16.1     8  73.4  67.4  81.1   29.38  1146
2026-09-06 14:46  14.4  15.9     7  73.6  67.6  81.2   29.38  1146
2026-09-06 14:44  14.8  15.6     4  73.6  67.2  80.2   29.38  1173
2026-09-06 14:42  14.4  15.2     8  73.4  67.5  81.6   29.38  1221
2026-09-06 14:40  15.7  16.7     4  73.4  67.2  80.5   29.38  1282
2026-09-06 14:38  15.6  17.1     4  73.6  67.3  80.3   29.38  1173
2026-09-06 14:36  15.2  16.1     8  73.6  67.2  80.0   29.38  1173
2026-09-06 14:34  14.8  15.4     7  73.6  67.2  80.1   29.38  1296
2026-09-06 14:32  13.8  14.8     7  73.6  67.3  80.4   29.38  1310
2026-09-06 14:30  15.0  15.9     3  73.6  67.2  80.1   29.38  1310
2026-09-06 14:28  14.6  16.3     5  73.6  67.8  81.7   29.38  1310
2026-09-06 14:26  13.0  14.2     8  73.6  67.9  82.0   29.38  1310
2026-09-06 14:24  14.4  15.7     7  73.6  66.7  78.7   29.38  1310
2026-09-06 14:22  15.2  15.9     6  73.6  66.5  78.1   29.38  1310
2026-09-06 14:20  14.2  15.7     6  73.6  67.2  80.2   29.38  1310
2026-09-06 14:18  14.6  15.6     6  73.6  67.0  79.5   29.38  1310
2026-09-06 14:16  14.2  15.0     8  73.8  66.5  77.8   29.38  1310
2026-09-06 14:14  14.4  15.0     6  73.8  66.9  78.7   29.38  1289
2026-09-06 14:12  13.8  15.0     6  73.6  66.9  79.3   29.38  1310
2026-09-06 14:10  13.0  14.4     5  73.6  67.3  80.5   29.39  1310
2026-09-06 14:08  13.2  14.4     3  73.6  67.4  80.6   29.39  1310
2026-09-06 14:06  13.6  14.6     3  73.6  66.8  79.1   29.38  1310
2026-09-06 14:04  14.2  14.8     5  73.6  66.8  78.9   29.38  1310
2026-09-06 14:02  14.8  15.7     7  73.4  66.5  78.8   29.38  1296
2026-09-06 14:00  15.7  16.3     4  73.2  66.4  79.0   29.38  1248
2026-09-06 13:58  15.2  16.9     1  73.2  66.8  80.1   29.38  1296
2026-09-06 13:56  14.2  15.2   360  73.2  66.9  80.2   29.38  1310
2026-09-06 13:54  14.0  15.6     0  73.4  66.5  78.7   29.39  1310
2026-09-06 13:52  14.6  15.6     2  73.4  67.3  80.8   29.39  1310
2026-09-06 13:50  13.8  15.4     3  73.4  66.8  79.5   29.39  1310
2026-09-06 13:48  13.0  15.0     2  73.6  66.8  78.9   29.39  1310
2026-09-06 13:46  13.4  14.6     3  73.6  66.8  79.1   29.39  1310
2026-09-06 13:44  14.0  14.8     3  73.9  66.6  77.5   29.39  1310
2026-09-06 13:42  13.0  14.2     9  74.1  66.4  76.4   29.39  1310
2026-09-06 13:40  12.8  13.6    10  74.1  66.0  75.4   29.39  1310
2026-09-06 13:38  12.6  13.2    10  74.1  66.6  77.1   29.39  1310
2026-09-06 13:36  12.4  13.4     9  74.1  66.0  75.3   29.39  1310
2026-09-06 13:34  12.8  13.8     9  73.9  65.8  75.3   29.39  1310
2026-09-06 13:32  12.8  13.6    10  73.9  66.2  76.4   29.39  1310
2026-09-06 13:30  12.6  14.6     9  73.9  66.1  76.1   29.39  1310
2026-09-06 13:28  12.6  13.8     9  73.9  66.0  76.0   29.38  1337
2026-09-06 13:26  12.2  13.0    11  73.8  65.9  76.2   29.39  1317
2026-09-06 13:24  12.8  13.8    11  73.6  65.8  76.2   29.38  1344
2026-09-06 13:22  13.0  14.2    13  73.6  65.8  76.2   29.38  1344
2026-09-06 13:20  13.2  14.2    14  73.6  65.8  76.2   29.39  1419
2026-09-06 13:18  12.4  13.2    12  73.6  65.7  76.1   29.39  1453
2026-09-06 13:16  12.2  13.2    10  73.4  65.8  76.7   29.39  1439
2026-09-06 13:14  12.2  13.0    12  73.2  65.7  77.0   29.39  1460
2026-09-06 13:12  12.4  13.0    14  73.0  65.9  77.9   29.39  1453
2026-09-06 13:10  12.1  13.0    15  73.2  66.0  77.8   29.39  1473
2026-09-06 13:08  11.7  12.8    13  73.2  66.1  78.1   29.39  1453
2026-09-06 13:06  11.7  12.2    14  73.2  65.9  77.5   29.39  1473
2026-09-06 13:04  12.4  13.4    13  73.2  65.6  76.8   29.39  1460
2026-09-06 13:02  12.1  13.2    13  73.2  66.0  77.7   29.39  1385
2026-09-06 13:00  11.7  12.8    14  73.2  65.7  77.0   29.39  1310
2026-09-06 12:58  12.1  12.4    12  73.4  65.7  76.4   29.39  1446
2026-09-06 12:56  11.7  12.8    11  73.2  65.8  77.1   29.39  1473
2026-09-06 12:54  11.7  12.2    14  73.2  65.6  76.6   29.39  1473
2026-09-06 12:52  10.9  12.2    12  73.4  65.8  76.7   29.39  1473